Nederlandse vliegveldverwachtingen (TAF)

Luchtvaartmeteorologische informatie voor operationeel gebruik en vluchtvoorbereiding is beschikbaar op www.luchtvaartmeteo.nl.

ZCZC
FC150900 EHGR RRA GILZE-RIJEN/GILZE-RIJEN   NLD   14 m.
TAF EHGR 150923Z 1510/1522 01007KT 9999 OVC035
    BECMG 1516/1519 VRB02KT=

ZCZC
FC150900 EHWO RRE WOENSDRECHT/WOENSDRECHT   NLD   19 m.
TAF EHWO 150910Z 1510/1522 01006KT 9999 OVC030
    BECMG 1516/1519 VRB02KT=

ZCZC
FT151100 EHLE     LELYSTAD/LELYSTAD   NLD   -3 m.
TAF EHLE 151121Z 1512/1618 30005KT 9999 BKN025
    PROB30 TEMPO 1512/1514 7000 -RADZ -RASN BKN018
    PROB30 TEMPO 1600/1607 4000 BR MIFG
    BECMG 1606/1609 18012KT
    BECMG 1614/1616 4000 -SN BKN012
    PROB40 TEMPO 1616/1618 1200 SN VV003=

ZCZC
FT151100 EHAM     AMSTERDAM/SCHIPHOL   NLD   -3 m.
TAF EHAM 151121Z 1512/1618 30005KT 9999 BKN025
    PROB30 TEMPO 1512/1516 7000 -RADZ -RASN BKN018
    PROB30 TEMPO 1600/1607 4000 BR MIFG
    BECMG 1606/1609 18012KT
    BECMG 1613/1615 4000 -SN BKN012
    PROB40 TEMPO 1615/1618 1200 SN VV003=

ZCZC
FT151100 EHRD     ROTTERDAM/THE HAGUE AIRPORT   NLD   -5 m.
TAF EHRD 151121Z 1512/1618 30005KT 9999 BKN025
    PROB30 TEMPO 1512/1518 7000 -RADZ -RASN BKN018
    PROB30 TEMPO 1600/1607 4000 BR MIFG
    BECMG 1606/1609 18012KT
    BECMG 1613/1615 4000 -SN BKN012
    PROB40 TEMPO 1615/1618 1200 SN VV003=

ZCZC
FT151100 EHGG     GRONINGEN/EELDE   NLD   5 m.
TAF EHGG 151121Z 1512/1618 36005KT 9999 BKN030
    PROB30 TEMPO 1521/1606 4000 BR BCFG
    BECMG 1609/1612 19010KT
    BECMG 1616/1618 2000 -SN BKN012
    TEMPO 1616/1618 0800 SN BKN008=

ZCZC
FT151100 EHBK     MAASTRICHT/MAASTRICHT-AACHEN   NLD   114 m.
TAF COR EHBK 151121Z 1512/1618 02006KT 9999 BKN006
    BECMG 1512/1515 BKN030
    PROB40 TEMPO 1520/1608 2500 BCFG BR
    BECMG 1616/1618 20010KT 2000 -SN BKN012=

ZCZC
FT151100 EHEH     EINDHOVEN/EINDHOVEN   NLD   22 m.
TAF EHEH 150929Z 1512/1618 36006KT 9999 OVC035
    BECMG 1519/1522 VRB02KT
    PROB30 1522/1606 1500 BR MIFG
    BECMG 1607/1609 18007KT PROB30 1606/1610 BKN006
    BECMG 1614/1616 6000 -SN -SNRA SCT020 OVC030
    PROB40 1616/1618 3500 SN BKN010 OVC020=

ZCZC
FC151300 EHKD RRA DE KOOY/DE KOOY   NLD   1 m.
TAF EHKD 151309Z 1514/1602 VRB03KT 9999 FEW025 OVC035
    PROB30 TEMPO 1514/1521 BKN020=

ZCZC
FC151300 EHLW RRB LEEUWARDEN/LEEUWARDEN   NLD   1 m.
TAF EHLW 151311Z 1514/1602 03003KT 9999 BKN023 OVC035
    PROB30 TEMPO 1514/1521 5000 SHSN FEW010 SCT015 BKN025
    BECMG 1517/1520 VRB02KT=

ZCZC
FC151300 EHVK RRC VOLKEL/VOLKEL   NLD   21 m.
TAF EHVK 151308Z 1514/1602 34005KT 9999 OVC035
    BECMG 1519/1522 VRB02KT
    PROB30 1522/1602 1500 BR MIFG=

15/01/2021 14.30 uur LT